Terminal Aerodrome Forecast
Issued by NWS Milwaukee/Sullivan, WI

Home | Current Version | Previous Version | Text Only | Print | Product List | Glossary On
Versions: 1 2 3 4 5 6 7 8 9 10 11 12 13 14 15 16 17 18 19 20 21 22 23 24 25 26 27 28 29 30 31 32 33 34 35 36 37 38 39 40 41 42 43
000
FTUS43 KMKX 061954 AAA
TAFMKE
TAF AMD
KMKE 061954Z 0620/0724 22006KT P6SM -RA SCT090 BKN110
     FM070000 21011KT P6SM VCSH BKN090
     FM070200 23008KT 6SM HZ VCTS BKN060CB
     FM070600 24009KT 6SM BR OVC008
     FM070800 30010KT 6SM BR OVC010
     FM071000 33011KT P6SM OVC015
     FM071200 36012G19KT P6SM BKN015
     FM071400 01013G21KT P6SM BKN040
     FM071500 01013G21KT P6SM SCT150=

USA.gov is the U.S. government's official web portal to all federal, state and local government web resources and services.